Current Weather

DuPage County

West Chicago, Illinois (KDPA)

Report from: Wednesday, September 28, 2022 3:52 AM CDT
Current time: Wednesday, September 28, 2022 4:14 AM CDT

Nearby weather
Weather history
Weather forecast

Temperature7.2°C (45.0°F)
Wind chill5.5°C (41.8°F)
Dew point3.9°C (39.0°F)
Winds 5 kts (2.6 m/s, 5.8 mph) North-Northwest (330°)
Visibility10 mi. (16.1 km)
Clouds Sky clear
Altimeter30.34 in.Hg (1027 mB)
Relative humidity80 %
Density altitude-1,299 ft. (-396 m)
Sea-level pressure102.8 kPa (1028 mB, 30.35 in.Hg)
Remarks Automated weather observing station with precipitation discriminator
Pressure rising more quickly
Flight conditions Visual Meteorological Conditions
Raw dataKDPA 280852Z 33005KT 10SM CLR 07/04 A3034 RMK AO2 SLP276 T00720039 53012
An error has occurred. This application may no longer respond until reloaded. Reload 🗙